createdAt,value
2022-07-31T00:00:41.357Z,101566.38
2022-07-31T00:03:08.784Z,101570.28
2022-07-31T00:05:41.420Z,101564.03
2022-07-31T00:08:09.022Z,101564.44
2022-07-31T00:10:35.679Z,101564.44
2022-07-31T00:13:02.479Z,101559.38
2022-07-31T00:15:29.108Z,101562.25
2022-07-31T00:17:55.819Z,101554.31
2022-07-31T00:20:22.253Z,101568.03
2022-07-31T00:22:49.234Z,101564.47
2022-07-31T00:25:16.878Z,101557.56
2022-07-31T00:27:43.956Z,101557.56
2022-07-31T00:30:13.046Z,101564.84
2022-07-31T00:32:39.807Z,101561.47
2022-07-31T00:35:07.008Z,101546.28
2022-07-31T00:37:38.157Z,101553.34
2022-07-31T00:40:07.918Z,101550.84
2022-07-31T00:42:34.920Z,101537.84
2022-07-31T00:45:01.587Z,101550.19
2022-07-31T00:47:28.288Z,101549.34
2022-07-31T00:49:56.771Z,101541.22
2022-07-31T00:52:23.247Z,101534.13
2022-07-31T00:54:49.680Z,101528.72
2022-07-31T00:57:16.147Z,101530.75
2022-07-31T00:59:43.718Z,101527.22
2022-07-31T01:02:11.290Z,101518.59
2022-07-31T01:04:37.708Z,101524.69
2022-07-31T01:07:08.217Z,101516.47
2022-07-31T01:09:34.653Z,101523.34
2022-07-31T01:12:22.732Z,101524.88
2022-07-31T01:14:53.113Z,101531.84
2022-07-31T01:17:22.245Z,101526.81
2022-07-31T01:19:50.696Z,101535.28
2022-07-31T01:22:33.578Z,101530.88
2022-07-31T01:25:29.209Z,101524.63
2022-07-31T01:28:24.268Z,101527.69
2022-07-31T01:31:27.238Z,101523.69
2022-07-31T01:34:03.764Z,101525.22
2022-07-31T01:36:35.192Z,101533.03
2022-07-31T01:39:03.605Z,101528.19
2022-07-31T01:41:34.230Z,101522.28
2022-07-31T01:44:04.457Z,101531.56
2022-07-31T01:46:37.343Z,101529.47
2022-07-31T01:49:09.831Z,101528.91
2022-07-31T01:51:39.081Z,101529.28
2022-07-31T01:54:06.347Z,101528.75
2022-07-31T01:56:34.793Z,101533.00
2022-07-31T01:59:02.877Z,101531.50
2022-07-31T02:01:32.182Z,101527.81
2022-07-31T02:04:01.328Z,101532.38
2022-07-31T02:06:28.760Z,101524.97
2022-07-31T02:08:56.540Z,101517.25
2022-07-31T02:11:23.569Z,101516.91
2022-07-31T02:13:51.583Z,101508.81
2022-07-31T02:16:20.335Z,101514.06
2022-07-31T02:18:49.683Z,101515.44
2022-07-31T02:21:17.213Z,101508.97
2022-07-31T02:23:43.705Z,101508.88
2022-07-31T02:26:10.340Z,101512.25
2022-07-31T02:28:40.651Z,101518.38
2022-07-31T02:31:11.481Z,101504.38
2022-07-31T02:33:40.078Z,101505.91
2022-07-31T02:36:07.749Z,101509.97
2022-07-31T02:38:36.108Z,101504.25
2022-07-31T02:41:05.225Z,101502.06
2022-07-31T02:43:35.230Z,101500.53
2022-07-31T02:46:03.404Z,101497.69
2022-07-31T02:48:30.890Z,101498.34
2022-07-31T02:50:58.138Z,101488.06
2022-07-31T02:53:24.908Z,101495.16
2022-07-31T02:55:51.796Z,101487.75
2022-07-31T02:58:18.493Z,101494.50
2022-07-31T03:00:45.855Z,101492.47
2022-07-31T03:03:12.614Z,101495.69
2022-07-31T03:05:39.066Z,101493.50
2022-07-31T03:08:05.699Z,101500.09
2022-07-31T03:10:32.163Z,101504.81
2022-07-31T03:13:00.677Z,101499.91
2022-07-31T03:15:28.947Z,101490.44
2022-07-31T03:17:55.734Z,101480.53
2022-07-31T03:20:23.440Z,101488.44
2022-07-31T03:22:50.718Z,101494.16
2022-07-31T03:25:21.612Z,101500.72
2022-07-31T03:27:56.014Z,101497.19
2022-07-31T03:30:25.182Z,101493.81
2022-07-31T03:32:56.167Z,101493.81
2022-07-31T03:35:24.598Z,101499.22
2022-07-31T03:37:51.565Z,101494.66
2022-07-31T03:40:18.223Z,101491.13
2022-07-31T03:42:45.401Z,101493.16
2022-07-31T03:45:13.241Z,101488.63
2022-07-31T03:47:40.057Z,101484.25
2022-07-31T03:50:07.956Z,101487.09
2022-07-31T03:52:34.916Z,101488.28
2022-07-31T03:55:01.728Z,101486.75
2022-07-31T03:57:33.989Z,101485.06
2022-07-31T04:00:02.642Z,101488.09
2022-07-31T04:02:29.879Z,101489.25
2022-07-31T04:04:58.554Z,101485.91
2022-07-31T04:07:25.102Z,101490.47
2022-07-31T04:09:51.945Z,101488.09
2022-07-31T04:12:18.523Z,101498.19
2022-07-31T04:14:45.193Z,101499.03
2022-07-31T04:17:11.879Z,101504.59
2022-07-31T04:19:39.259Z,101500.03
2022-07-31T04:22:06.713Z,101499.34
2022-07-31T04:24:34.185Z,101496.16
2022-07-31T04:27:00.662Z,101490.94
2022-07-31T04:29:28.688Z,101500.41
2022-07-31T04:31:55.855Z,101503.56
2022-07-31T04:34:22.467Z,101503.09
2022-07-31T04:36:48.969Z,101512.53
2022-07-31T04:39:15.485Z,101504.44
2022-07-31T04:41:41.947Z,101509.84
2022-07-31T04:44:08.444Z,101503.59
2022-07-31T04:46:34.907Z,101507.16
2022-07-31T04:49:01.478Z,101499.91
2022-07-31T04:51:28.104Z,101499.53
2022-07-31T04:53:54.586Z,101489.59
2022-07-31T04:56:37.376Z,101503.06
2022-07-31T04:59:06.683Z,101504.63
2022-07-31T05:01:33.742Z,101504.41
2022-07-31T05:04:00.647Z,101509.78
2022-07-31T05:06:41.102Z,101506.22
2022-07-31T05:09:13.746Z,101499.81
2022-07-31T05:11:45.650Z,101504.16
2022-07-31T05:14:14.223Z,101501.13
2022-07-31T05:16:40.883Z,101494.53
2022-07-31T05:19:14.508Z,101494.34
2022-07-31T05:21:53.274Z,101489.63
2022-07-31T05:24:32.699Z,101496.34
2022-07-31T05:27:00.835Z,101489.56
2022-07-31T05:29:27.287Z,101489.91
2022-07-31T05:31:59.977Z,101478.56
2022-07-31T05:34:30.150Z,101485.94
2022-07-31T05:36:58.322Z,101486.03
2022-07-31T05:39:25.198Z,101486.13
2022-07-31T05:41:52.704Z,101484.75
2022-07-31T05:44:19.361Z,101467.56
2022-07-31T05:46:45.873Z,101476.19
2022-07-31T05:49:12.666Z,101481.28
2022-07-31T05:51:42.494Z,101475.56
2022-07-31T05:54:08.927Z,101476.59
2022-07-31T05:56:35.376Z,101485.09
2022-07-31T05:59:01.807Z,101489.84
2022-07-31T06:01:28.353Z,101482.75
2022-07-31T06:03:54.803Z,101493.34
2022-07-31T06:06:21.452Z,101502.53
2022-07-31T06:08:47.889Z,101496.25
2022-07-31T06:11:14.310Z,101502.47
2022-07-31T06:13:43.518Z,101487.34
2022-07-31T06:16:16.173Z,101494.44
2022-07-31T06:18:43.109Z,101496.25
2022-07-31T06:21:09.881Z,101485.53
2022-07-31T06:23:37.409Z,101494.44
2022-07-31T06:26:04.345Z,101491.81
2022-07-31T06:28:43.173Z,101485.63
2022-07-31T06:31:21.998Z,101484.25
2022-07-31T06:33:49.932Z,101489.16
2022-07-31T06:36:17.786Z,101485.22
2022-07-31T06:38:44.523Z,101485.91
2022-07-31T06:41:10.927Z,101494.97
2022-07-31T06:43:37.557Z,101490.41
2022-07-31T06:46:04.013Z,101488.97
2022-07-31T06:48:30.625Z,101496.78
2022-07-31T06:51:27.964Z,101491.56
2022-07-31T06:53:43.472Z,101491.38
2022-07-31T06:56:10.136Z,101485.94
2022-07-31T06:58:36.588Z,101484.06
2022-07-31T07:01:03.199Z,101477.13
2022-07-31T07:03:29.672Z,101473.59
2022-07-31T07:05:56.103Z,101477.78
2022-07-31T07:08:22.596Z,101475.66
2022-07-31T07:10:49.487Z,101476.69
2022-07-31T07:13:15.991Z,101478.34
2022-07-31T07:15:42.411Z,101477.69
2022-07-31T07:18:08.856Z,101466.97
2022-07-31T07:20:35.285Z,101467.75
2022-07-31T07:23:01.717Z,101466.06
2022-07-31T07:25:28.793Z,101461.69
2022-07-31T07:27:56.628Z,101465.00
2022-07-31T07:30:23.704Z,101465.63
2022-07-31T07:32:50.120Z,101457.84
2022-07-31T07:35:16.678Z,101460.56
2022-07-31T07:37:43.170Z,101463.09
2022-07-31T07:40:09.983Z,101458.69
2022-07-31T07:42:36.574Z,101459.09
2022-07-31T07:45:08.106Z,101467.06
2022-07-31T07:48:05.294Z,101459.25
2022-07-31T07:50:22.727Z,101468.25
2022-07-31T07:52:53.339Z,101467.00
2022-07-31T07:55:19.755Z,101463.16
2022-07-31T07:57:46.250Z,101464.19
2022-07-31T08:00:13.616Z,101470.44
2022-07-31T08:02:41.256Z,101459.25
2022-07-31T08:05:07.823Z,101458.59
2022-07-31T08:07:42.862Z,101457.50
2022-07-31T08:10:09.892Z,101453.72
2022-07-31T08:12:36.514Z,101454.75
2022-07-31T08:15:04.430Z,101459.28
2022-07-31T08:17:31.148Z,101459.91
2022-07-31T08:19:57.633Z,101457.19
2022-07-31T08:22:24.086Z,101467.22
2022-07-31T08:24:50.564Z,101463.84
2022-07-31T08:27:39.614Z,101461.47
2022-07-31T08:30:07.205Z,101462.66
2022-07-31T08:32:33.667Z,101470.38
2022-07-31T08:35:00.223Z,101460.91
2022-07-31T08:37:51.815Z,101455.22
2022-07-31T08:40:13.123Z,101458.34
2022-07-31T08:42:39.568Z,101465.50
2022-07-31T08:45:07.990Z,101470.97
2022-07-31T08:47:35.906Z,101457.75
2022-07-31T08:50:06.450Z,101457.13
2022-07-31T08:52:34.917Z,101461.44
2022-07-31T08:55:06.356Z,101459.22
2022-07-31T08:57:33.404Z,101461.16
2022-07-31T08:59:59.818Z,101452.16
2022-07-31T09:02:26.511Z,101461.47
2022-07-31T09:04:53.094Z,101457.69
2022-07-31T09:07:19.711Z,101443.69
2022-07-31T09:09:51.552Z,101445.78
2022-07-31T09:12:33.609Z,101441.97
2022-07-31T09:15:00.935Z,101441.13
2022-07-31T09:17:35.874Z,101440.03
2022-07-31T09:20:04.317Z,101431.84
2022-07-31T09:22:31.367Z,101444.38
2022-07-31T09:25:12.853Z,101439.25
2022-07-31T09:27:39.575Z,101437.47
2022-07-31T09:30:07.679Z,101426.69
2022-07-31T09:32:34.123Z,101424.19
2022-07-31T09:35:14.455Z,101420.63
2022-07-31T09:37:41.283Z,101420.53
2022-07-31T09:40:09.275Z,101420.50
2022-07-31T09:42:38.301Z,101416.31
2022-07-31T09:45:23.024Z,101424.06
2022-07-31T09:48:14.382Z,101416.28
2022-07-31T09:50:58.511Z,101412.41
2022-07-31T09:53:25.815Z,101408.06
2022-07-31T09:55:53.892Z,101405.69
2022-07-31T09:58:22.202Z,101406.75
2022-07-31T10:00:52.419Z,101390.66
2022-07-31T10:03:19.785Z,101397.25
2022-07-31T10:05:47.550Z,101393.03
2022-07-31T10:08:17.269Z,101393.84
2022-07-31T10:10:45.065Z,101382.16
2022-07-31T10:13:15.474Z,101389.66
2022-07-31T10:15:45.492Z,101395.59
2022-07-31T10:18:11.980Z,101377.19
2022-07-31T10:20:42.075Z,101386.16
2022-07-31T10:23:18.952Z,101368.91
2022-07-31T10:25:54.472Z,101359.03
2022-07-31T10:28:21.901Z,101361.91
2022-07-31T10:30:49.209Z,101360.63
2022-07-31T10:33:41.857Z,101348.28
2022-07-31T10:36:09.171Z,101360.47
2022-07-31T10:39:06.487Z,101365.81
2022-07-31T10:41:51.828Z,101363.25
2022-07-31T10:44:32.130Z,101360.13
2022-07-31T10:47:12.133Z,101352.50
2022-07-31T10:49:48.347Z,101350.19
2022-07-31T10:52:29.229Z,101348.94
2022-07-31T10:54:58.246Z,101341.81
2022-07-31T10:57:27.106Z,101340.81
2022-07-31T10:59:54.093Z,101339.19
2022-07-31T11:02:32.083Z,101341.41
2022-07-31T11:05:22.988Z,101334.25
2022-07-31T11:08:01.501Z,101326.22
2022-07-31T11:10:28.167Z,101326.38
2022-07-31T11:13:08.360Z,101320.59
2022-07-31T11:15:37.383Z,101316.25
2022-07-31T11:18:25.374Z,101315.72
2022-07-31T11:21:09.467Z,101303.50
2022-07-31T11:23:55.640Z,101316.69
2022-07-31T11:26:33.062Z,101312.94
2022-07-31T11:30:01.488Z,101305.56
2022-07-31T11:31:54.540Z,101290.72
2022-07-31T11:34:21.081Z,101295.13
2022-07-31T11:36:51.255Z,101276.22
2022-07-31T11:39:18.541Z,101284.22
2022-07-31T11:41:47.295Z,101286.75
2022-07-31T11:44:20.731Z,101284.94
2022-07-31T11:46:49.945Z,101284.94
2022-07-31T11:49:39.206Z,101281.72
2022-07-31T11:52:30.785Z,101275.16
2022-07-31T11:55:13.379Z,101266.75
2022-07-31T11:57:50.764Z,101272.78
2022-07-31T12:00:26.769Z,101267.59
2022-07-31T12:02:57.531Z,101259.59
2022-07-31T12:05:38.731Z,101259.59
2022-07-31T12:08:07.706Z,101264.25
2022-07-31T12:10:34.457Z,101264.28
2022-07-31T12:13:02.304Z,101258.47
2022-07-31T12:15:29.114Z,101250.50
2022-07-31T12:18:05.059Z,101237.31
2022-07-31T12:20:36.991Z,101235.06
2022-07-31T12:23:05.483Z,101229.03
2022-07-31T12:25:42.663Z,101225.72
2022-07-31T12:28:10.078Z,101215.25
2022-07-31T12:30:36.685Z,101205.88
2022-07-31T12:33:07.856Z,101202.00
2022-07-31T12:35:56.242Z,101206.66
2022-07-31T12:38:44.724Z,101208.59
2022-07-31T12:41:13.470Z,101196.44
2022-07-31T12:43:40.275Z,101179.56
2022-07-31T12:46:19.101Z,101195.22
2022-07-31T12:48:46.370Z,101194.38
2022-07-31T12:51:13.159Z,101194.84
2022-07-31T12:53:39.643Z,101197.31
2022-07-31T12:56:11.381Z,101186.53
2022-07-31T12:58:37.842Z,101182.34
2022-07-31T13:01:04.503Z,101175.97
2022-07-31T13:03:38.861Z,101182.56
2022-07-31T13:06:13.216Z,101168.38
2022-07-31T13:08:39.710Z,101168.84
2022-07-31T13:11:06.146Z,101170.38
2022-07-31T13:13:32.579Z,101173.50
2022-07-31T13:15:59.027Z,101178.88
2022-07-31T13:18:25.467Z,101165.53
2022-07-31T13:20:51.896Z,101169.03
2022-07-31T13:23:18.335Z,101171.78
2022-07-31T13:25:44.789Z,101170.59
2022-07-31T13:28:11.323Z,101165.19
2022-07-31T13:30:38.592Z,101162.25
2022-07-31T13:33:05.136Z,101164.34
2022-07-31T13:35:32.607Z,101150.44
2022-07-31T13:37:59.021Z,101164.78
2022-07-31T13:40:44.617Z,101160.72
2022-07-31T13:43:11.334Z,101149.50
2022-07-31T13:45:38.305Z,101156.66
2022-07-31T13:48:09.369Z,101154.00
2022-07-31T13:50:39.874Z,101152.41
2022-07-31T13:53:06.710Z,101148.03
2022-07-31T13:55:33.330Z,101151.69
2022-07-31T13:58:01.437Z,101142.09
2022-07-31T14:00:29.380Z,101142.44
2022-07-31T14:02:56.045Z,101135.72
2022-07-31T14:05:24.324Z,101134.53
2022-07-31T14:07:53.262Z,101135.53
2022-07-31T14:10:21.517Z,101134.81
2022-07-31T14:12:48.704Z,101122.03
2022-07-31T14:15:16.504Z,101128.78
2022-07-31T14:17:43.325Z,101134.97
2022-07-31T14:20:10.220Z,101137.59
2022-07-31T14:22:36.810Z,101139.31
2022-07-31T14:25:04.149Z,101138.09
2022-07-31T14:27:30.750Z,101129.41
2022-07-31T14:29:57.224Z,101133.09
2022-07-31T14:32:25.062Z,101131.25
2022-07-31T14:34:52.106Z,101136.34
2022-07-31T14:37:18.764Z,101136.16
2022-07-31T14:39:45.233Z,101129.66
2022-07-31T14:42:12.229Z,101137.81
2022-07-31T14:44:41.881Z,101138.38
2022-07-31T14:47:09.403Z,101137.41
2022-07-31T14:50:09.526Z,101139.19
2022-07-31T14:52:22.493Z,101138.88
2022-07-31T14:54:49.109Z,101142.72
2022-07-31T14:57:20.227Z,101152.44
2022-07-31T14:59:49.060Z,101165.44
2022-07-31T15:02:19.858Z,101170.69
2022-07-31T15:04:48.526Z,101176.16
2022-07-31T15:07:34.205Z,101175.03
2022-07-31T15:10:02.064Z,101184.41
2022-07-31T15:12:29.118Z,101176.31
2022-07-31T15:14:55.499Z,101171.06
2022-07-31T15:17:21.930Z,101184.84
2022-07-31T15:19:48.398Z,101184.16
2022-07-31T15:22:17.459Z,101181.31
2022-07-31T15:24:48.286Z,101182.63
2022-07-31T15:27:16.038Z,101177.91
2022-07-31T15:30:03.333Z,101170.22
2022-07-31T15:32:29.569Z,101170.25
2022-07-31T15:34:56.036Z,101162.53
2022-07-31T15:37:23.423Z,101164.63
2022-07-31T15:40:02.962Z,101166.53
2022-07-31T15:42:34.099Z,101170.31
2022-07-31T15:45:00.767Z,101163.81
2022-07-31T15:47:27.255Z,101164.28
2022-07-31T15:49:53.746Z,101161.56
2022-07-31T15:52:20.189Z,101153.81
2022-07-31T15:54:47.136Z,101157.56
2022-07-31T15:57:16.058Z,101152.13
2022-07-31T15:59:42.708Z,101155.69
2022-07-31T16:02:09.113Z,101155.69
2022-07-31T16:04:51.652Z,101154.66
2022-07-31T16:08:33.190Z,101155.91
2022-07-31T16:10:15.577Z,101151.50
2022-07-31T16:12:43.106Z,101145.88
2022-07-31T16:15:12.225Z,101148.38
2022-07-31T16:17:38.891Z,101144.19
2022-07-31T16:20:11.793Z,101151.75
2022-07-31T16:22:40.342Z,101150.66
2022-07-31T16:25:09.768Z,101146.91
2022-07-31T16:27:37.131Z,101140.44
2022-07-31T16:30:04.822Z,101142.09
2022-07-31T16:32:31.286Z,101133.94
2022-07-31T16:35:00.939Z,101137.91
2022-07-31T16:37:50.283Z,101130.81
2022-07-31T16:40:30.397Z,101125.16
2022-07-31T16:43:50.247Z,101126.41
2022-07-31T16:45:53.434Z,101134.38
2022-07-31T16:48:19.998Z,101138.13
2022-07-31T16:50:48.358Z,101138.34
2022-07-31T16:54:14.500Z,101122.69
2022-07-31T16:56:07.000Z,101134.16
2022-07-31T16:58:33.507Z,101127.91
2022-07-31T17:01:00.086Z,101125.81
2022-07-31T17:04:02.077Z,101130.19
2022-07-31T17:06:13.014Z,101116.41
2022-07-31T17:08:39.472Z,101124.13
2022-07-31T17:11:05.969Z,101126.00
2022-07-31T17:13:32.565Z,101116.38
2022-07-31T17:15:59.046Z,101129.53
2022-07-31T17:18:25.966Z,101121.59
2022-07-31T17:20:56.266Z,101136.63
2022-07-31T17:23:43.365Z,101132.00
2022-07-31T17:26:21.173Z,101123.22
2022-07-31T17:28:48.485Z,101133.88
2022-07-31T17:31:14.887Z,101125.72
2022-07-31T17:33:58.217Z,101138.44
2022-07-31T17:36:27.657Z,101127.38
2022-07-31T17:38:54.123Z,101125.06
2022-07-31T17:41:24.787Z,101118.34
2022-07-31T17:43:53.301Z,101135.03
2022-07-31T17:46:22.135Z,101132.72
2022-07-31T17:49:01.434Z,101134.81
2022-07-31T17:51:27.924Z,101117.22
2022-07-31T17:53:55.145Z,101127.66
2022-07-31T17:56:26.251Z,101123.47
2022-07-31T17:58:52.698Z,101123.03
2022-07-31T18:01:19.166Z,101117.22
2022-07-31T18:03:45.848Z,101114.25
2022-07-31T18:06:12.299Z,101106.53
2022-07-31T18:08:38.760Z,101108.78
2022-07-31T18:11:06.500Z,101107.75
2022-07-31T18:13:48.338Z,101111.75
2022-07-31T18:16:18.719Z,101116.31
2022-07-31T18:18:45.684Z,101115.69
2022-07-31T18:21:13.475Z,101109.41
2022-07-31T18:23:43.566Z,101104.19
2022-07-31T18:26:14.301Z,101097.75
2022-07-31T18:28:40.823Z,101105.88
2022-07-31T18:31:32.687Z,101100.25
2022-07-31T18:33:53.887Z,101109.22
2022-07-31T18:36:21.224Z,101099.41
2022-07-31T18:38:47.887Z,101095.66
2022-07-31T18:41:14.500Z,101092.13
2022-07-31T18:43:40.966Z,101094.00
2022-07-31T18:46:07.401Z,101085.41
2022-07-31T18:48:34.296Z,101084.56
2022-07-31T18:51:04.762Z,101086.69
2022-07-31T18:53:32.251Z,101088.56
2022-07-31T18:55:58.702Z,101089.78
2022-07-31T18:58:25.159Z,101094.19
2022-07-31T19:00:55.118Z,101080.59
2022-07-31T19:03:23.277Z,101089.16
2022-07-31T19:05:50.845Z,101085.81
2022-07-31T19:08:17.395Z,101087.69
2022-07-31T19:10:43.955Z,101081.63
2022-07-31T19:13:17.231Z,101076.00
2022-07-31T19:15:47.093Z,101079.09
2022-07-31T19:18:14.239Z,101082.84
2022-07-31T19:20:56.391Z,101078.91
2022-07-31T19:23:27.107Z,101069.69
2022-07-31T19:26:03.520Z,101074.50
2022-07-31T19:28:32.725Z,101073.63
2022-07-31T19:30:59.230Z,101079.50
2022-07-31T19:33:25.763Z,101085.31
2022-07-31T19:35:58.348Z,101086.75
2022-07-31T19:38:27.533Z,101078.19
2022-07-31T19:40:54.464Z,101085.88
2022-07-31T19:43:21.051Z,101078.31
2022-07-31T19:46:10.508Z,101079.53
2022-07-31T19:48:35.190Z,101082.69
2022-07-31T19:51:01.659Z,101080.56
2022-07-31T19:53:28.238Z,101076.38
2022-07-31T19:55:54.971Z,101088.44
2022-07-31T19:58:21.647Z,101083.00
2022-07-31T20:00:48.161Z,101075.91
2022-07-31T20:03:14.666Z,101071.34
2022-07-31T20:05:41.203Z,101078.81
2022-07-31T20:08:07.619Z,101069.84
2022-07-31T20:10:34.130Z,101075.50
2022-07-31T20:13:00.646Z,101077.16
2022-07-31T20:15:27.433Z,101078.41
2022-07-31T20:18:27.559Z,101069.63
2022-07-31T20:20:59.910Z,101073.56
2022-07-31T20:23:27.243Z,101071.06
2022-07-31T20:25:53.795Z,101070.22
2022-07-31T20:28:20.413Z,101065.19
2022-07-31T20:30:46.886Z,101058.75
2022-07-31T20:33:13.666Z,101064.16
2022-07-31T20:35:49.018Z,101067.91
2022-07-31T20:38:23.810Z,101063.97
2022-07-31T20:40:53.689Z,101063.31
2022-07-31T20:43:27.102Z,101058.75
2022-07-31T20:45:57.262Z,101052.03
2022-07-31T20:48:26.452Z,101047.47
2022-07-31T20:50:53.030Z,101030.34
2022-07-31T20:53:20.853Z,101044.56
2022-07-31T20:55:49.705Z,101045.81
2022-07-31T20:58:18.400Z,101040.16
2022-07-31T21:00:45.503Z,101032.66
2022-07-31T21:03:11.994Z,101041.66
2022-07-31T21:05:38.484Z,101038.94
2022-07-31T21:08:05.257Z,101042.47
2022-07-31T21:10:32.056Z,101040.41
2022-07-31T21:12:58.489Z,101045.00
2022-07-31T21:15:42.525Z,101042.94
2022-07-31T21:18:16.091Z,101039.19
2022-07-31T21:20:49.612Z,101030.44
2022-07-31T21:23:19.433Z,101035.66
2022-07-31T21:25:46.059Z,101039.19
2022-07-31T21:28:12.837Z,101028.75
2022-07-31T21:30:40.121Z,101039.00
2022-07-31T21:33:07.897Z,101032.53
2022-07-31T21:35:36.632Z,101032.75
2022-07-31T21:38:04.397Z,101036.31
2022-07-31T21:40:31.681Z,101029.22
2022-07-31T21:42:58.435Z,101037.78
2022-07-31T21:45:31.395Z,101036.75
2022-07-31T21:48:14.109Z,101037.19
2022-07-31T21:50:45.503Z,101037.00
2022-07-31T21:53:13.124Z,101029.47
2022-07-31T21:55:40.646Z,101030.53
2022-07-31T21:58:08.362Z,101030.53
2022-07-31T22:00:35.228Z,101034.50
2022-07-31T22:03:03.410Z,101031.78
2022-07-31T22:05:49.054Z,101032.44
2022-07-31T22:08:16.136Z,101025.16
2022-07-31T22:10:42.801Z,101032.25
2022-07-31T22:13:09.427Z,101032.06
2022-07-31T22:15:58.539Z,101037.28
2022-07-31T22:18:23.175Z,101029.81
2022-07-31T22:20:53.204Z,101026.91
2022-07-31T22:23:19.983Z,101039.22
2022-07-31T22:25:48.948Z,101026.69
2022-07-31T22:28:18.897Z,101027.34
2022-07-31T22:30:45.886Z,101025.22
2022-07-31T22:33:12.581Z,101027.53
2022-07-31T22:35:40.582Z,101029.81
2022-07-31T22:38:07.833Z,101039.63
2022-07-31T22:40:34.690Z,101036.72
2022-07-31T22:43:02.382Z,101035.88
2022-07-31T22:45:30.232Z,101032.31
2022-07-31T22:47:57.713Z,101033.16
2022-07-31T22:50:24.800Z,101038.59
2022-07-31T22:52:51.802Z,101038.59
2022-07-31T22:55:18.446Z,101041.09
2022-07-31T22:57:45.187Z,101039.41
2022-07-31T23:00:13.910Z,101030.47
2022-07-31T23:02:41.595Z,101035.03
2022-07-31T23:05:09.003Z,101032.13
2022-07-31T23:07:35.548Z,101037.56
2022-07-31T23:10:02.267Z,101038.59
2022-07-31T23:12:29.459Z,101038.59
2022-07-31T23:14:56.191Z,101045.69
2022-07-31T23:17:23.578Z,101037.13
2022-07-31T23:19:54.360Z,101057.38
2022-07-31T23:22:33.511Z,101046.31
2022-07-31T23:25:08.911Z,101054.06
2022-07-31T23:27:35.631Z,101055.09
2022-07-31T23:30:02.113Z,101052.38
2022-07-31T23:32:28.755Z,101056.78
2022-07-31T23:34:55.274Z,101054.25
2022-07-31T23:37:21.722Z,101053.41
2022-07-31T23:39:48.289Z,101053.81
2022-07-31T23:42:33.418Z,101057.16
2022-07-31T23:44:59.924Z,101050.06
2022-07-31T23:47:27.979Z,101047.16
2022-07-31T23:50:11.823Z,101041.09
2022-07-31T23:52:38.283Z,101050.06
2022-07-31T23:55:05.190Z,101052.78
2022-07-31T23:57:34.359Z,101044.00
